Time;durP1;ratioP1;P1;durP2;ratioP2;P2;SDS_P1;SDS_P2;PMS_P1;PMS_P2;Temp;Humidity;BMP_temperature;BMP_pressure;BME280_temperature;BME280_humidity;BME280_pressure;Samples;Min_cycle;Max_cycle;Signal;HPM_P1;HPM_P2
2021/11/29 00:00:25;;;;;;;20.60;14.63;;;3.40;99.90;;;;;;5034316;28;20086;-62
2021/11/29 00:02:55;;;;;;;23.92;16.17;;;3.50;99.90;;;;;;5034958;28;20033;-63
2021/11/29 00:05:23;;;;;;;21.38;16.10;;;3.50;99.90;;;;;;5034999;28;20026;-62
2021/11/29 00:07:49;;;;;;;23.15;15.63;;;3.40;99.90;;;;;;5037184;28;20025;-60
2021/11/29 00:10:18;;;;;;;23.88;16.55;;;3.40;99.90;;;;;;5029251;28;20034;-62
2021/11/29 00:12:45;;;;;;;25.40;16.33;;;3.40;99.90;;;;;;5023276;28;20434;-63
2021/11/29 00:15:15;;;;;;;22.85;15.30;;;3.40;99.90;;;;;;5027488;28;20034;-63
2021/11/29 00:17:41;;;;;;;21.38;16.05;;;3.30;99.90;;;;;;5028702;28;20120;-60
2021/11/29 00:20:09;;;;;;;22.60;16.25;;;3.30;99.90;;;;;;5033456;28;20101;-61
2021/11/29 00:22:35;;;;;;;20.88;16.50;;;3.30;99.90;;;;;;5033742;28;20108;-60
2021/11/29 00:25:00;;;;;;;22.75;16.08;;;3.20;99.90;;;;;;5033947;28;20481;-62
2021/11/29 00:27:26;;;;;;;25.95;17.08;;;2.80;99.90;;;;;;5033489;28;20041;-61
2021/11/29 00:29:52;;;;;;;25.35;16.63;;;2.90;99.90;;;;;;5033401;28;20136;-61
2021/11/29 00:32:17;;;;;;;23.85;17.25;;;2.90;99.90;;;;;;5032917;28;20515;-62
2021/11/29 00:34:43;;;;;;;24.42;17.75;;;2.80;99.90;;;;;;5033657;28;20580;-62
2021/11/29 00:37:09;;;;;;;22.33;16.42;;;2.70;99.90;;;;;;5030800;28;20036;-62
2021/11/29 00:39:34;;;;;;;23.98;16.88;;;2.60;99.90;;;;;;5033249;28;20120;-63
2021/11/29 00:42:00;;;;;;;27.10;17.17;;;2.70;99.90;;;;;;5033326;28;20061;-62
2021/11/29 00:44:26;;;;;;;21.20;16.42;;;2.60;99.90;;;;;;5033564;28;20037;-61
2021/11/29 00:46:53;;;;;;;23.95;17.50;;;2.60;99.90;;;;;;5033951;28;20028;-63
2021/11/29 00:49:19;;;;;;;22.38;16.65;;;2.70;99.90;;;;;;5033044;28;20075;-63
2021/11/29 00:51:45;;;;;;;26.55;17.05;;;2.60;99.90;;;;;;5007502;28;20037;-62
2021/11/29 00:54:11;;;;;;;23.38;16.88;;;2.60;99.90;;;;;;5033199;28;20041;-62
2021/11/29 00:56:36;;;;;;;24.58;16.83;;;2.70;99.90;;;;;;5034353;28;20053;-63
2021/11/29 00:59:03;;;;;;;28.63;17.35;;;2.80;99.90;;;;;;5034270;28;20053;-62
2021/11/29 01:01:29;;;;;;;23.08;17.52;;;2.80;99.90;;;;;;5000039;28;20118;-64
2021/11/29 01:03:55;;;;;;;24.90;16.90;;;2.80;99.90;;;;;;5034093;28;20108;-64
2021/11/29 01:06:21;;;;;;;22.67;16.63;;;2.90;99.90;;;;;;5016396;28;20060;-64
2021/11/29 01:08:46;;;;;;;23.95;17.90;;;2.80;99.90;;;;;;5034095;28;20460;-62
2021/11/29 01:11:12;;;;;;;25.42;17.48;;;2.80;99.90;;;;;;5015920;28;20063;-62
2021/11/29 01:13:38;;;;;;;23.85;17.00;;;3.00;99.90;;;;;;5032270;28;20091;-62
2021/11/29 01:16:05;;;;;;;26.10;17.58;;;3.00;99.90;;;;;;5033829;28;20021;-61
2021/11/29 01:18:31;;;;;;;29.23;17.88;;;3.00;99.90;;;;;;5031320;28;20094;-61
2021/11/29 01:20:56;;;;;;;23.20;17.30;;;3.00;99.90;;;;;;5025085;28;20029;-63
2021/11/29 01:23:23;;;;;;;23.58;17.60;;;3.10;99.90;;;;;;5025322;28;20030;-61
2021/11/29 01:25:50;;;;;;;22.98;17.48;;;3.00;99.90;;;;;;5019637;28;20083;-61
2021/11/29 01:28:17;;;;;;;26.90;18.73;;;3.00;99.90;;;;;;5021987;28;20069;-61
2021/11/29 01:30:43;;;;;;;27.20;18.52;;;3.10;99.90;;;;;;5034120;28;20041;-60
2021/11/29 01:33:09;;;;;;;25.60;18.40;;;3.00;99.90;;;;;;5029743;28;20082;-62
2021/11/29 01:35:34;;;;;;;26.02;18.83;;;3.10;99.90;;;;;;5027839;28;20044;-60
2021/11/29 01:38:00;;;;;;;23.00;16.92;;;3.00;99.90;;;;;;4999939;28;20042;-62
2021/11/29 01:40:27;;;;;;;28.50;19.05;;;2.90;99.90;;;;;;5013346;28;20048;-61
2021/11/29 01:43:15;;;;;;;28.45;19.10;;;2.80;99.90;;;;;;4996335;28;20038;-62
2021/11/29 01:45:45;;;;;;;30.73;18.30;;;2.70;99.90;;;;;;5003561;28;20056;-60
2021/11/29 01:48:12;;;;;;;27.75;18.40;;;2.60;99.90;;;;;;5028204;28;20021;-62
2021/11/29 01:50:41;;;;;;;25.70;18.25;;;2.50;99.90;;;;;;5027672;28;20029;-62
2021/11/29 01:53:08;;;;;;;27.73;18.70;;;2.70;99.90;;;;;;5028076;28;20124;-61
2021/11/29 01:55:36;;;;;;;26.77;19.02;;;2.50;99.90;;;;;;5023236;28;20124;-62
2021/11/29 01:58:03;;;;;;;29.02;19.35;;;2.60;99.90;;;;;;5021780;28;20511;-63
2021/11/29 02:00:32;;;;;;;30.75;20.52;;;2.50;99.90;;;;;;5025195;28;20044;-61
2021/11/29 02:02:58;;;;;;;31.27;19.27;;;2.30;99.90;;;;;;5006012;28;20304;-62
2021/11/29 02:05:25;;;;;;;28.52;19.42;;;2.30;99.90;;;;;;5029628;28;20117;-62
2021/11/29 02:07:51;;;;;;;28.45;19.63;;;2.40;99.90;;;;;;5000663;28;20030;-62
2021/11/29 02:10:20;;;;;;;26.15;18.65;;;2.60;99.90;;;;;;5012689;28;20492;-60
2021/11/29 02:12:46;;;;;;;27.98;18.92;;;2.60;99.90;;;;;;5013181;28;20041;-61
2021/11/29 02:15:13;;;;;;;28.20;19.25;;;2.80;99.90;;;;;;5013397;28;20034;-62
2021/11/29 02:17:40;;;;;;;26.70;18.20;;;2.80;99.90;;;;;;5013721;28;20056;-62
2021/11/29 02:20:06;;;;;;;26.67;18.58;;;2.80;99.90;;;;;;5012676;28;20030;-60
2021/11/29 02:22:32;;;;;;;26.77;18.05;;;3.00;99.90;;;;;;5012738;28;20034;-62
2021/11/29 02:24:58;;;;;;;25.52;18.58;;;3.00;99.90;;;;;;5012751;28;20033;-60
2021/11/29 02:27:24;;;;;;;29.35;19.70;;;3.10;99.90;;;;;;5013046;28;20026;-60
2021/11/29 02:29:57;;;;;;;26.17;18.95;;;3.10;99.90;;;;;;5012863;28;20037;-62
2021/11/29 02:32:23;;;;;;;27.55;18.13;;;3.10;99.90;;;;;;5012661;28;20034;-63
2021/11/29 02:34:49;;;;;;;26.90;18.23;;;3.10;99.90;;;;;;5012728;28;20029;-63
2021/11/29 02:37:16;;;;;;;29.35;19.75;;;3.00;99.90;;;;;;5012851;28;20469;-62
2021/11/29 02:39:42;;;;;;;25.83;18.27;;;3.00;99.90;;;;;;4994852;28;20038;-62
2021/11/29 02:42:10;;;;;;;25.65;18.92;;;3.00;99.90;;;;;;5012903;28;20440;-61
2021/11/29 02:44:37;;;;;;;26.40;19.10;;;3.10;99.90;;;;;;5012700;28;20482;-61
2021/11/29 02:47:04;;;;;;;26.45;19.42;;;3.10;99.90;;;;;;5012628;28;20085;-63
2021/11/29 02:49:30;;;;;;;25.92;18.20;;;3.10;99.90;;;;;;5012703;28;20038;-62
2021/11/29 02:52:01;;;;;;;26.15;19.08;;;3.10;99.90;;;;;;5014430;28;20381;-61
2021/11/29 02:54:31;;;;;;;27.20;18.13;;;3.20;99.90;;;;;;5020834;28;20025;-62
2021/11/29 02:57:19;;;;;;;26.13;19.63;;;3.20;99.90;;;;;;5022987;28;20518;-60
2021/11/29 02:59:45;;;;;;;27.13;18.88;;;3.10;99.90;;;;;;5031691;28;20034;-62
2021/11/29 03:02:13;;;;;;;27.00;18.25;;;3.10;99.90;;;;;;5032045;28;20048;-62
2021/11/29 03:04:40;;;;;;;26.83;18.60;;;3.10;99.90;;;;;;5032100;28;20050;-60
2021/11/29 03:07:07;;;;;;;28.63;19.67;;;3.10;99.90;;;;;;5032252;28;20134;-62
2021/11/29 03:09:34;;;;;;;29.95;19.70;;;3.10;99.90;;;;;;5031533;28;20382;-62
2021/11/29 03:12:00;;;;;;;28.85;20.23;;;3.10;99.90;;;;;;5032016;28;20676;-62
2021/11/29 03:14:26;;;;;;;32.60;20.70;;;3.00;99.90;;;;;;5031216;28;20059;-63
2021/11/29 03:16:54;;;;;;;28.08;19.58;;;3.10;99.90;;;;;;5031911;28;20436;-63
2021/11/29 03:19:21;;;;;;;26.02;18.73;;;3.10;99.90;;;;;;5031859;28;20036;-62
2021/11/29 03:21:47;;;;;;;31.48;22.25;;;3.10;99.90;;;;;;5031604;28;20515;-62
2021/11/29 03:24:14;;;;;;;27.45;20.05;;;3.10;99.90;;;;;;5032060;28;20029;-61
2021/11/29 03:26:40;;;;;;;32.35;20.15;;;3.00;99.90;;;;;;5031838;28;20129;-61
2021/11/29 03:29:10;;;;;;;30.02;20.58;;;2.70;99.90;;;;;;5031680;28;20021;-64
2021/11/29 03:31:37;;;;;;;29.73;20.40;;;2.70;99.90;;;;;;5031959;28;20041;-61
2021/11/29 03:34:07;;;;;;;27.80;19.60;;;2.80;99.90;;;;;;5031674;28;20107;-63
2021/11/29 03:36:35;;;;;;;32.20;20.92;;;2.90;99.90;;;;;;5013788;28;20037;-62
2021/11/29 03:39:05;;;;;;;35.17;22.52;;;3.00;99.90;;;;;;5031751;28;20064;-63
2021/11/29 03:41:31;;;;;;;32.47;21.55;;;2.90;99.90;;;;;;5031398;28;20481;-61
2021/11/29 03:43:57;;;;;;;33.40;20.63;;;3.00;99.90;;;;;;5031961;28;20025;-62
2021/11/29 03:46:23;;;;;;;32.92;22.17;;;2.90;99.90;;;;;;5030672;28;20041;-62
2021/11/29 03:48:48;;;;;;;32.60;20.77;;;3.00;99.90;;;;;;5014600;28;20087;-61
2021/11/29 03:51:14;;;;;;;30.42;20.80;;;3.00;99.90;;;;;;5031500;28;20025;-62
2021/11/29 03:53:40;;;;;;;29.67;20.95;;;3.00;99.90;;;;;;5031702;28;20489;-61
2021/11/29 03:56:05;;;;;;;33.08;22.02;;;3.00;99.90;;;;;;5014189;28;20496;-62
2021/11/29 03:58:31;;;;;;;34.38;21.83;;;2.90;99.90;;;;;;5030456;28;20026;-63
2021/11/29 04:00:57;;;;;;;32.45;23.30;;;2.90;99.90;;;;;;5030265;28;20111;-63
2021/11/29 04:03:23;;;;;;;32.88;22.15;;;2.90;99.90;;;;;;5031889;28;20424;-61
2021/11/29 04:05:49;;;;;;;35.92;24.35;;;2.90;99.90;;;;;;5031609;28;20025;-60
2021/11/29 04:08:15;;;;;;;32.05;23.10;;;2.80;99.90;;;;;;5033097;28;20525;-62
2021/11/29 04:10:41;;;;;;;32.90;22.30;;;2.70;99.90;;;;;;5034875;28;20155;-61
2021/11/29 04:13:07;;;;;;;34.10;22.60;;;2.80;99.90;;;;;;5036241;28;20112;-62
2021/11/29 04:15:33;;;;;;;35.03;22.85;;;3.00;99.90;;;;;;5035174;28;20041;-61
2021/11/29 04:17:58;;;;;;;37.83;23.17;;;2.90;99.90;;;;;;5035746;28;20059;-58
2021/11/29 04:20:24;;;;;;;36.60;24.90;;;2.90;99.90;;;;;;5017111;28;20029;-62
2021/11/29 04:22:50;;;;;;;35.10;23.73;;;2.80;99.90;;;;;;5035288;28;20091;-61
2021/11/29 04:25:19;;;;;;;37.05;23.98;;;2.80;99.90;;;;;;5034913;28;20168;-60
2021/11/29 04:27:47;;;;;;;36.80;24.92;;;2.60;99.90;;;;;;5034825;28;20384;-61
2021/11/29 04:30:17;;;;;;;37.42;23.73;;;2.60;99.90;;;;;;5016938;28;20029;-60
2021/11/29 04:32:45;;;;;;;35.92;24.05;;;2.80;99.90;;;;;;5018564;28;20038;-61
2021/11/29 04:35:11;;;;;;;43.63;25.10;;;2.60;99.90;;;;;;5034974;28;20111;-61
2021/11/29 04:37:37;;;;;;;39.08;24.45;;;2.70;99.90;;;;;;5034840;28;20026;-62
2021/11/29 04:40:04;;;;;;;42.35;25.50;;;2.70;99.90;;;;;;5016460;28;20033;-59
2021/11/29 04:42:30;;;;;;;40.10;25.75;;;2.70;99.90;;;;;;5034253;28;20035;-62
2021/11/29 04:44:56;;;;;;;38.92;26.13;;;2.70;99.90;;;;;;5016735;28;20116;-58
2021/11/29 04:47:21;;;;;;;38.75;25.85;;;2.70;99.90;;;;;;4984189;28;20096;-60
2021/11/29 04:49:47;;;;;;;37.08;25.33;;;2.80;99.90;;;;;;5034106;28;20053;-61
2021/11/29 04:52:13;;;;;;;42.05;25.33;;;2.70;99.90;;;;;;5034306;28;20033;-62
2021/11/29 04:54:38;;;;;;;40.05;26.17;;;2.80;99.90;;;;;;5034295;28;20489;-62
2021/11/29 04:57:04;;;;;;;40.60;24.75;;;3.00;99.90;;;;;;5034325;28;20397;-62
2021/11/29 04:59:30;;;;;;;40.47;26.30;;;3.00;99.90;;;;;;5034025;28;20041;-63
2021/11/29 05:01:56;;;;;;;36.38;24.70;;;2.90;99.90;;;;;;5032819;28;20089;-62
2021/11/29 05:04:22;;;;;;;44.67;25.63;;;3.00;99.90;;;;;;5032784;28;20037;-63
2021/11/29 05:06:48;;;;;;;43.90;25.80;;;2.90;99.90;;;;;;5034480;28;20033;-62
2021/11/29 05:09:13;;;;;;;43.13;28.15;;;2.90;99.90;;;;;;5016198;28;20156;-61
2021/11/29 05:11:40;;;;;;;44.08;27.23;;;2.60;99.90;;;;;;5034130;28;20049;-61
2021/11/29 05:14:06;;;;;;;44.78;27.15;;;2.60;99.90;;;;;;5033732;28;20110;-61
2021/11/29 05:16:32;;;;;;;42.22;26.42;;;2.70;99.90;;;;;;5032867;28;20040;-63
2021/11/29 05:18:58;;;;;;;38.40;25.50;;;2.80;99.90;;;;;;5033173;28;20035;-58
2021/11/29 05:21:24;;;;;;;44.55;26.52;;;2.90;99.90;;;;;;5032221;28;20037;-58
2021/11/29 05:23:50;;;;;;;39.90;25.90;;;3.00;99.90;;;;;;5000353;28;20100;-63
2021/11/29 05:26:23;;;;;;;46.22;27.25;;;3.00;99.90;;;;;;5024690;28;20072;-62
2021/11/29 05:28:52;;;;;;;42.15;25.35;;;3.10;99.90;;;;;;5016116;28;20060;-62
2021/11/29 05:31:18;;;;;;;38.65;25.23;;;3.20;99.90;;;;;;5033541;28;20045;-62
2021/11/29 05:33:44;;;;;;;38.50;24.63;;;3.10;99.90;;;;;;5034670;28;20042;-62
2021/11/29 05:36:10;;;;;;;39.63;26.77;;;3.00;99.90;;;;;;5034165;28;20045;-62
2021/11/29 05:38:36;;;;;;;44.25;26.80;;;3.00;99.90;;;;;;5033701;28;20026;-61
2021/11/29 05:41:02;;;;;;;42.00;25.55;;;2.70;99.90;;;;;;5033241;28;20115;-62
2021/11/29 05:43:29;;;;;;;44.63;27.52;;;2.80;99.90;;;;;;5033596;28;20400;-61
2021/11/29 05:45:57;;;;;;;38.80;26.10;;;2.80;99.90;;;;;;5033466;28;20164;-61
2021/11/29 05:48:22;;;;;;;41.60;27.85;;;2.90;99.90;;;;;;5033462;28;20481;-64
2021/11/29 05:50:48;;;;;;;38.33;24.77;;;2.90;99.90;;;;;;5033315;28;20032;-63
2021/11/29 05:53:14;;;;;;;43.45;26.10;;;3.00;99.90;;;;;;5033143;28;20031;-63
2021/11/29 05:55:39;;;;;;;40.03;25.63;;;3.10;99.90;;;;;;5033403;28;20045;-60
2021/11/29 05:58:05;;;;;;;37.20;25.08;;;3.20;99.90;;;;;;5032549;28;20640;-62
2021/11/29 06:00:31;;;;;;;39.95;24.92;;;3.20;99.90;;;;;;5032270;28;20043;-61
2021/11/29 06:02:59;;;;;;;40.00;25.27;;;3.30;99.90;;;;;;5032204;28;20393;-62
2021/11/29 06:05:25;;;;;;;38.03;24.98;;;3.30;99.90;;;;;;5016097;28;20037;-62
2021/11/29 06:07:51;;;;;;;36.50;24.55;;;3.40;99.90;;;;;;5033299;28;20071;-62
2021/11/29 06:10:18;;;;;;;38.10;26.17;;;3.30;99.90;;;;;;5032462;28;20488;-62
2021/11/29 06:12:44;;;;;;;41.10;26.10;;;3.20;99.90;;;;;;5033142;28;20033;-61
2021/11/29 06:15:10;;;;;;;41.25;25.45;;;3.20;99.90;;;;;;5033427;28;20079;-62
2021/11/29 06:17:37;;;;;;;39.70;26.35;;;3.10;99.90;;;;;;5032858;28;20040;-61
2021/11/29 06:20:05;;;;;;;38.15;23.77;;;3.10;99.90;;;;;;5029206;28;20545;-62
2021/11/29 06:22:30;;;;;;;36.65;24.73;;;3.20;99.90;;;;;;5026552;28;20041;-62
2021/11/29 06:24:56;;;;;;;37.72;24.00;;;3.20;99.90;;;;;;5032975;28;20029;-60
2021/11/29 06:27:22;;;;;;;37.97;23.98;;;3.10;99.90;;;;;;4999444;28;20049;-61
2021/11/29 06:29:48;;;;;;;36.33;23.35;;;3.20;99.90;;;;;;5015075;28;20028;-63
2021/11/29 06:32:13;;;;;;;35.80;23.45;;;3.10;99.90;;;;;;5032764;28;20045;-61
2021/11/29 06:34:39;;;;;;;37.10;23.92;;;3.10;99.90;;;;;;5032464;28;20041;-63
2021/11/29 06:37:05;;;;;;;34.35;22.65;;;3.20;99.90;;;;;;5014938;28;20092;-62
2021/11/29 06:39:34;;;;;;;42.42;26.33;;;3.10;99.90;;;;;;5014642;28;20507;-62
2021/11/29 06:42:01;;;;;;;36.83;23.48;;;3.00;99.90;;;;;;5032433;28;20048;-63
2021/11/29 06:44:27;;;;;;;38.35;24.23;;;3.10;99.90;;;;;;5015323;28;20036;-63
2021/11/29 06:46:52;;;;;;;34.15;23.20;;;3.00;99.90;;;;;;5031974;28;20034;-61
2021/11/29 06:49:18;;;;;;;36.38;23.90;;;3.00;99.90;;;;;;5032309;28;20026;-62
2021/11/29 06:51:44;;;;;;;40.53;24.33;;;3.00;99.90;;;;;;5015255;28;20044;-64
2021/11/29 06:54:10;;;;;;;45.25;27.27;;;3.00;99.90;;;;;;5012064;28;20608;-62
2021/11/29 06:56:35;;;;;;;38.20;25.00;;;3.10;99.90;;;;;;5013001;28;20037;-64
2021/11/29 06:59:01;;;;;;;39.20;25.15;;;3.00;99.90;;;;;;5012689;28;20543;-64
2021/11/29 07:01:27;;;;;;;35.90;23.38;;;2.90;99.90;;;;;;5000341;28;20079;-62
2021/11/29 07:03:52;;;;;;;38.13;23.98;;;2.90;99.90;;;;;;5023220;28;20025;-61
2021/11/29 07:06:18;;;;;;;43.92;25.23;;;2.90;99.90;;;;;;5017884;28;20442;-61
2021/11/29 07:08:44;;;;;;;40.75;24.83;;;2.80;99.90;;;;;;5004452;28;20485;-63
2021/11/29 07:11:09;;;;;;;37.92;24.27;;;2.80;99.90;;;;;;5014664;28;20061;-62
2021/11/29 07:13:36;;;;;;;38.30;25.08;;;2.60;99.90;;;;;;5031938;28;20112;-60
2021/11/29 07:16:02;;;;;;;39.22;25.50;;;2.70;99.90;;;;;;5032588;28;20123;-64
2021/11/29 07:18:28;;;;;;;38.10;23.80;;;2.80;99.90;;;;;;5026479;28;20112;-63
2021/11/29 07:20:55;;;;;;;35.92;23.63;;;2.90;99.90;;;;;;5010011;28;20040;-62
2021/11/29 07:23:21;;;;;;;40.70;24.48;;;3.00;99.90;;;;;;5011253;28;20033;-63
2021/11/29 07:25:47;;;;;;;41.00;24.05;;;2.80;99.90;;;;;;5020534;28;20069;-62
2021/11/29 07:28:13;;;;;;;40.42;23.10;;;2.80;99.90;;;;;;5024300;28;20112;-63
2021/11/29 07:30:40;;;;;;;36.97;23.63;;;3.00;99.90;;;;;;5027188;28;20029;-63
2021/11/29 07:33:06;;;;;;;36.45;23.92;;;3.00;99.90;;;;;;5026043;28;20033;-62
2021/11/29 07:35:31;;;;;;;34.45;22.08;;;3.00;99.90;;;;;;5031715;28;20512;-63
2021/11/29 07:37:58;;;;;;;38.13;23.77;;;3.10;99.90;;;;;;5014327;28;20179;-64
2021/11/29 07:40:28;;;;;;;33.95;22.05;;;3.20;99.90;;;;;;5017603;28;20026;-63
2021/11/29 07:42:59;;;;;;;45.30;24.13;;;3.00;99.90;;;;;;5031789;28;20053;-62
2021/11/29 07:45:25;;;;;;;38.05;23.65;;;3.00;99.90;;;;;;5035436;28;20018;-60
2021/11/29 07:47:51;;;;;;;33.83;22.52;;;2.80;99.90;;;;;;5034401;28;20037;-62
2021/11/29 07:50:18;;;;;;;39.78;22.52;;;2.80;99.90;;;;;;5035147;28;20037;-61
2021/11/29 07:52:45;;;;;;;26.27;16.50;;;3.00;99.90;;;;;;5001636;28;20095;-62
2021/11/29 07:55:12;;;;;;;35.38;19.88;;;3.00;99.90;;;;;;5017811;28;20412;-63
2021/11/29 07:57:39;;;;;;;29.13;18.67;;;3.10;99.90;;;;;;5028256;28;20048;-62
2021/11/29 08:00:08;;;;;;;27.45;18.38;;;3.30;99.90;;;;;;4997856;28;20557;-63
2021/11/29 08:02:34;;;;;;;31.85;19.80;;;3.40;99.90;;;;;;5015942;28;20103;-61
2021/11/29 08:05:00;;;;;;;32.60;21.70;;;3.40;99.90;;;;;;5015688;28;20481;-61
2021/11/29 08:07:26;;;;;;;30.55;20.02;;;3.40;99.90;;;;;;4999699;28;20064;-64
2021/11/29 08:09:51;;;;;;;32.30;20.60;;;3.50;99.90;;;;;;5035564;28;20037;-63
2021/11/29 08:12:17;;;;;;;34.97;22.40;;;3.40;99.90;;;;;;5034267;28;20199;-63
2021/11/29 08:14:43;;;;;;;32.80;21.05;;;3.30;99.90;;;;;;5035822;28;20094;-62
2021/11/29 08:17:08;;;;;;;30.52;21.10;;;3.60;99.90;;;;;;5035676;28;20025;-63
2021/11/29 08:19:34;;;;;;;34.33;22.10;;;3.50;99.90;;;;;;5034899;28;20034;-60
2021/11/29 08:22:00;;;;;;;34.88;21.95;;;3.50;99.90;;;;;;5034497;28;20037;-62
2021/11/29 08:24:25;;;;;;;42.60;22.20;;;3.30;99.90;;;;;;5035138;28;20031;-67
2021/11/29 08:26:52;;;;;;;35.47;22.77;;;3.10;99.90;;;;;;5035110;28;20048;-62
2021/11/29 08:29:18;;;;;;;36.70;24.15;;;2.90;99.90;;;;;;5034884;28;20056;-62
2021/11/29 08:31:43;;;;;;;36.35;21.20;;;2.80;99.90;;;;;;5035209;28;20038;-64
2021/11/29 08:34:09;;;;;;;32.97;21.63;;;2.90;99.90;;;;;;5017132;28;20060;-63
2021/11/29 08:36:36;;;;;;;38.20;22.63;;;3.20;99.90;;;;;;5034991;28;20091;-61
2021/11/29 08:39:03;;;;;;;37.65;22.63;;;3.10;99.90;;;;;;5035331;28;20041;-63
2021/11/29 08:41:30;;;;;;;32.78;20.83;;;3.20;99.90;;;;;;5034624;28;20497;-61
2021/11/29 08:43:56;;;;;;;33.17;21.00;;;3.20;99.90;;;;;;5034733;28;20475;-63
2021/11/29 08:46:23;;;;;;;34.97;21.83;;;3.30;99.90;;;;;;5041461;28;20128;-60
2021/11/29 08:48:49;;;;;;;32.83;21.63;;;3.40;99.90;;;;;;5037102;28;20037;-62
2021/11/29 08:51:18;;;;;;;32.55;21.20;;;3.40;99.90;;;;;;5042973;28;20060;-61
2021/11/29 08:53:44;;;;;;;33.05;21.02;;;3.40;99.90;;;;;;5016299;28;20091;-61
2021/11/29 08:56:11;;;;;;;33.47;20.42;;;3.30;99.90;;;;;;5036615;28;20033;-61
2021/11/29 08:58:37;;;;;;;31.60;20.60;;;3.30;99.90;;;;;;5050540;28;20080;-63
2021/11/29 09:01:04;;;;;;;32.17;20.55;;;3.30;99.90;;;;;;5016244;28;20033;-63
2021/11/29 09:03:30;;;;;;;36.65;20.70;;;3.30;99.90;;;;;;5000532;28;20417;-59
2021/11/29 09:05:57;;;;;;;33.25;20.73;;;3.10;99.90;;;;;;5016971;28;20033;-59
2021/11/29 09:08:27;;;;;;;29.13;18.20;;;3.00;99.90;;;;;;5040654;28;20480;-63
2021/11/29 09:10:53;;;;;;;28.77;18.25;;;3.10;99.90;;;;;;5041888;28;20042;-62
2021/11/29 09:13:20;;;;;;;28.70;16.48;;;3.30;99.90;;;;;;5042674;28;20106;-59
2021/11/29 09:15:47;;;;;;;21.33;14.68;;;3.60;99.90;;;;;;5054273;28;20040;-62
2021/11/29 09:18:14;;;;;;;19.67;13.93;;;3.50;99.90;;;;;;5054048;28;20035;-62
2021/11/29 09:20:41;;;;;;;19.55;13.52;;;3.50;99.90;;;;;;5035992;28;20489;-62
2021/11/29 09:23:08;;;;;;;19.88;13.48;;;3.30;99.90;;;;;;5035039;28;20065;-60
2021/11/29 09:25:40;;;;;;;17.55;12.30;;;3.50;99.90;;;;;;5009913;28;20034;-61
2021/11/29 09:28:07;;;;;;;16.67;12.05;;;3.40;99.90;;;;;;5028604;28;20087;-55
2021/11/29 09:30:33;;;;;;;17.40;11.23;;;3.60;99.90;;;;;;5032421;28;20100;-61
2021/11/29 09:32:59;;;;;;;17.92;11.55;;;3.50;99.90;;;;;;5033423;28;20485;-60
2021/11/29 09:35:24;;;;;;;17.98;11.15;;;3.40;99.90;;;;;;5028793;28;20025;-60
2021/11/29 09:37:50;;;;;;;16.10;10.85;;;3.50;99.90;;;;;;5024109;28;20033;-64
2021/11/29 09:40:22;;;;;;;14.70;10.15;;;3.60;99.90;;;;;;5026644;28;20034;-66
2021/11/29 09:42:49;;;;;;;14.82;10.10;;;3.50;99.90;;;;;;5007016;28;20120;-67
2021/11/29 09:45:16;;;;;;;17.08;10.35;;;3.50;99.90;;;;;;5024531;28;20025;-63
2021/11/29 09:47:42;;;;;;;13.02;9.60;;;3.60;99.90;;;;;;5005494;28;20054;-67
2021/11/29 09:50:09;;;;;;;16.23;10.77;;;3.60;99.90;;;;;;5027243;28;20048;-66
2021/11/29 09:52:35;;;;;;;17.55;10.88;;;3.70;99.90;;;;;;5012594;28;20041;-65
2021/11/29 09:55:02;;;;;;;17.02;11.48;;;3.50;99.90;;;;;;5011598;28;20050;-66
2021/11/29 09:57:28;;;;;;;16.10;10.77;;;3.50;99.90;;;;;;5026612;28;20041;-67
2021/11/29 09:59:54;;;;;;;15.00;10.48;;;3.60;99.90;;;;;;5003313;28;20128;-66
2021/11/29 10:02:19;;;;;;;16.00;10.55;;;3.70;99.90;;;;;;5014071;28;20432;-67
2021/11/29 10:04:48;;;;;;;14.30;10.02;;;3.60;99.90;;;;;;5030800;28;20038;-66
2021/11/29 10:07:49;;;;;;;14.65;9.35;;;3.50;99.90;;;;;;5012757;28;20025;-66
2021/11/29 10:10:18;;;;;;;16.10;9.70;;;3.70;99.90;;;;;;5031337;28;20860;-67
2021/11/29 10:12:47;;;;;;;12.73;9.45;;;3.90;99.90;;;;;;5018597;28;20056;-66
2021/11/29 10:15:17;;;;;;;13.80;10.27;;;4.00;99.90;;;;;;5029722;28;20852;-66
2021/11/29 10:17:43;;;;;;;13.07;9.73;;;4.00;99.90;;;;;;5006043;28;20056;-66
2021/11/29 10:20:09;;;;;;;13.45;10.07;;;4.00;99.90;;;;;;5002999;28;20516;-67
2021/11/29 10:22:35;;;;;;;13.00;8.82;;;3.90;99.90;;;;;;5007605;28;20038;-67
2021/11/29 10:25:18;;;;;;;14.43;9.38;;;3.90;99.90;;;;;;5007429;28;20052;-67
2021/11/29 10:27:45;;;;;;;12.38;9.27;;;3.90;99.90;;;;;;5004888;28;20033;-66
2021/11/29 10:30:16;;;;;;;12.70;8.93;;;3.90;99.90;;;;;;5029539;28;20103;-69
2021/11/29 10:32:44;;;;;;;11.35;8.90;;;4.00;99.90;;;;;;5015393;28;20091;-66
2021/11/29 10:35:23;;;;;;;10.77;8.07;;;4.10;99.90;;;;;;5012530;28;20045;-66
2021/11/29 10:37:51;;;;;;;8.93;6.97;;;4.10;99.90;;;;;;5023507;28;20048;-66
2021/11/29 10:40:21;;;;;;;11.30;8.00;;;3.90;99.90;;;;;;5027773;28;20087;-66
2021/11/29 10:42:48;;;;;;;9.15;7.65;;;3.90;99.90;;;;;;4993621;28;20029;-65
2021/11/29 10:45:24;;;;;;;9.88;7.43;;;3.90;99.90;;;;;;5024708;28;20485;-65
2021/11/29 10:47:55;;;;;;;9.63;7.43;;;3.90;99.90;;;;;;5031268;28;20041;-67
2021/11/29 10:50:29;;;;;;;8.32;6.68;;;3.80;99.90;;;;;;5024971;28;20366;-66
2021/11/29 10:53:09;;;;;;;9.32;6.88;;;4.00;99.90;;;;;;4998171;28;20034;-66
2021/11/29 10:55:58;;;;;;;8.18;6.60;;;4.10;99.90;;;;;;5020325;28;20061;-67
2021/11/29 10:58:25;;;;;;;8.82;6.68;;;3.80;99.90;;;;;;5031479;28;20032;-64
2021/11/29 11:00:51;;;;;;;8.38;6.18;;;3.70;99.90;;;;;;5013927;28;20509;-66
2021/11/29 11:03:17;;;;;;;8.15;6.60;;;3.80;99.90;;;;;;5014874;28;20120;-66
2021/11/29 11:06:01;;;;;;;8.02;6.70;;;4.00;99.90;;;;;;5014451;28;20062;-70
2021/11/29 11:08:36;;;;;;;9.52;6.72;;;4.10;99.90;;;;;;5025823;28;20040;-67
2021/11/29 11:11:32;;;;;;;13.05;7.32;;;4.10;99.90;;;;;;4990178;28;20038;-65
2021/11/29 11:14:07;;;;;;;11.48;7.78;;;4.00;99.90;;;;;;5018882;28;20029;-68
2021/11/29 11:16:43;;;;;;;;;;;3.90;99.90;;;;;;5023751;28;20034;-68
2021/11/29 11:19:11;;;;;;;11.57;8.43;;;3.90;99.90;;;;;;5028399;28;19948;-71
2021/11/29 11:21:37;;;;;;;11.48;8.63;;;3.90;99.90;;;;;;5027921;28;20420;-67
2021/11/29 11:24:26;;;;;;;13.32;9.35;;;4.10;99.90;;;;;;5032509;28;20119;-67
2021/11/29 11:26:56;;;;;;;12.73;8.73;;;4.10;99.90;;;;;;5035584;28;20033;-66
2021/11/29 11:29:46;;;;;;;13.82;10.43;;;3.90;99.90;;;;;;5030224;28;20040;-66
2021/11/29 11:32:33;;;;;;;14.00;9.65;;;3.80;99.90;;;;;;5030387;28;20033;-68
2021/11/29 11:35:14;;;;;;;12.65;9.18;;;3.90;99.90;;;;;;5034698;28;20033;-67
2021/11/29 11:38:04;;;;;;;14.45;10.18;;;3.90;99.90;;;;;;5032223;28;20090;-70
2021/11/29 11:40:37;;;;;;;15.00;10.07;;;4.00;99.90;;;;;;4991585;28;20107;-68
2021/11/29 11:43:05;;;;;;;13.90;10.25;;;4.00;99.90;;;;;;5002863;28;20038;-67
2021/11/29 11:45:33;;;;;;;14.20;10.23;;;3.70;99.90;;;;;;5022621;28;20037;-67
2021/11/29 11:47:59;;;;;;;12.43;9.50;;;3.90;99.90;;;;;;5019256;28;20029;-68
2021/11/29 11:50:29;;;;;;;12.68;9.90;;;4.00;99.90;;;;;;5018172;28;20068;-68
2021/11/29 11:52:58;;;;;;;14.23;8.73;;;3.80;99.90;;;;;;5029818;28;20473;-67
2021/11/29 11:55:31;;;;;;;10.95;9.00;;;4.00;99.90;;;;;;5026861;28;20056;-68
2021/11/29 11:57:58;;;;;;;10.75;8.52;;;4.10;99.90;;;;;;5026505;28;20183;-70
2021/11/29 12:00:53;;;;;;;12.05;8.88;;;4.20;99.90;;;;;;5042234;28;20456;-69
2021/11/29 12:03:27;;;;;;;11.05;8.85;;;4.20;99.90;;;;;;5030112;28;20045;-70
2021/11/29 12:05:59;;;;;;;10.95;8.35;;;4.10;99.90;;;;;;5032331;28;20052;-67
2021/11/29 12:08:46;;;;;;;15.63;9.40;;;4.30;99.90;;;;;;5039055;28;20028;-68
2021/11/29 12:11:25;;;;;;;11.82;9.23;;;4.30;99.90;;;;;;5026743;28;20030;-68
2021/11/29 12:14:03;;;;;;;11.52;8.85;;;4.20;99.90;;;;;;5023186;28;20396;-67
2021/11/29 12:16:31;;;;;;;12.80;9.32;;;4.10;99.90;;;;;;5029195;28;20259;-67
2021/11/29 12:19:00;;;;;;;13.88;9.27;;;4.10;99.90;;;;;;5033706;28;20052;-68
2021/11/29 12:21:33;;;;;;;11.35;9.15;;;4.00;99.90;;;;;;5038185;28;20029;-68
2021/11/29 12:24:08;;;;;;;11.68;9.70;;;4.10;99.90;;;;;;5013934;28;20045;-69
2021/11/29 12:26:46;;;;;;;11.07;9.60;;;4.20;99.90;;;;;;5035327;28;20082;-69
2021/11/29 12:29:24;;;;;;;11.95;9.32;;;4.30;99.90;;;;;;5033306;28;20549;-68
2021/11/29 12:32:02;;;;;;;15.60;10.07;;;4.20;99.90;;;;;;5036290;28;20029;-68
2021/11/29 12:34:47;;;;;;;13.48;9.57;;;4.10;99.90;;;;;;5027149;28;20045;-69
2021/11/29 12:37:30;;;;;;;12.88;9.45;;;4.00;99.90;;;;;;5029769;28;20021;-69
2021/11/29 12:40:01;;;;;;;12.43;9.18;;;4.20;99.90;;;;;;5034178;28;20045;-69
2021/11/29 12:42:27;;;;;;;12.60;9.55;;;4.20;99.90;;;;;;5035130;28;20493;-69